Aeroporto :
LOGIN :

Iscrizione | Disclaimer

   EN    FR    IT 

 










Sommario :    VFR   VFR Marginale   IFR   IFR Intensivo   IFR Molto Intensivo
Visibilità : 
Base nubi : 
>= 8 km
>= 3000ft
5 / 8 km
1000 / 3000 ft
1500m / 5 km
500 / 1000 ft
800 / 1500m
200 / 500 ft
< 800m
< 200 ft
Simboli :   Temporali  Nebbia  Neve Forte  Precipitazioni Forti  Vento > 20 kt
SIGMETs :   Varie  Temporali  Ghiacco  Turbolenza  Onda orograficha  Ceneri Vulcaniche






- Altitudine del aeroporto : 3 ft
- Codice IATA : DHR


EHKD - Den Helder De Kooy

ULTIMO METAR :
  • 200155Z AUTO 32015G25KT 290V010 9999 FEW020 SCT024 06/02 Q1023 WHT

METARs OBSOLETI :
  • 200125Z AUTO 32016G28KT 290V020 9999 SCT022 BKN025 BKN031 07/02 Q1023 WHT
  • 200055Z AUTO 31016KT 280V360 9999 FEW033 SCT039 BKN050 06/02 Q1023 BLU
  • 200027Z AUTO 31016KT 270V340 9999 SCT019 BKN023 BKN053 06/02 Q1022 WHT
  • 200025Z AUTO 31016KT 270V360 9999 FEW019 SCT023 BKN064 06/02 Q1022 WHT
  • 192355Z AUTO 31015KT 280V350 9999 FEW021 06/02 Q1022 BLU
  • 192325Z AUTO 31014KT 280V350 9999 FEW022 BKN027 OVC031 07/03 Q1022 BLU
  • 192305Z AUTO 31014KT 260V350 9999 FEW022 SCT026 BKN030 07/02 Q1022 BLU

TAF TAF EHKD
Valido dal 19 a 18 ore il 20 a 06 ore UTC


191742Z 1918/2006 31012G27KT 9999 SCT030
PROB40
TEMPO 2001/2004 4500 RA FEW012 SCT015
BECMG 2001/2003 34020G33KT



MetMap, La meteo Aeronautica in un colpo d'occhio ! - Copyright ORBIFLY Dicembre 2007 - Disclaimer

ORBIFLY MET'MAP TEAM :

Programmazione e sviluppo : Alexandra Zaïnal
Concezione : Baudouin d'Aumeries
Aiuto per la programmazione : Marc-Olivier Méhu
Supporto tecnico e logistico : Manuel Goepfert
Aiuto per la traduzione : Arnaldo La Scala

Contatto : metmap@orbifly.com




FONTI E CREDITI :

   NOAA